Stokes, Minnesota
Current Conditions -  °F | °C
As of 1:33 PM on Monday 22 Dec 2014 (Local Time) from KFOZ Reporting Station
Light Rain Light Rain  
Wind Chill: 32°   Ceiling: 600
Heat Index: 36°   Visibility: 10mi
Dew Point: 34°   Wind: 5mph
Humidity: 93%   Direction: 120°ESE
Pressure: 29.62"   Gusts: NA
Location:  47.7637°N, 93.7058°W
Report Text: KFOZ 221933Z AUTO 12004KT 10SM -RA BKN006 OVC011 02/01 A2962 RMK AO2 P0001 TSNO
Loading
Personal Weather Stations






























Interactive Weather Map New forecast layout! Learn more

10-Day Weather Forecast

Advertisements
Track Severe Weather on mobile